Time,TemperatureF,DewpointF,PressureIn,WindDirection,WindDirectionDegrees,WindSpeedMPH,WindSpeedGustMPH,Humidity,HourlyPrecipIn,Conditions,Clouds,dailyrainin,SoftwareType,DateUTC
2013-05-24 00:14:00,78.6,73.0,29.95,ESE,105,8.0,10.0,83,0.00,,,0.00,weatherlink.com 1.10,2013-05-24 05:14:00,
2013-05-24 00:29:00,78.5,73.0,29.94,ESE,119,7.0,12.0,83,0.00,,,0.00,weatherlink.com 1.10,2013-05-24 05:29:00,
2013-05-24 00:44:00,78.4,73.0,29.95,ESE,117,5.0,8.0,83,0.00,,,0.00,weatherlink.com 1.10,2013-05-24 05:44:00,
2013-05-24 00:59:00,78.3,73.0,29.95,ESE,106,3.0,7.0,83,0.00,,,0.00,weatherlink.com 1.10,2013-05-24 05:59:00,
2013-05-24 01:15:00,78.2,72.0,29.95,ESE,106,6.0,6.0,81,0.00,,,0.00,weatherlink.com 1.10,2013-05-24 06:15:00,
2013-05-24 01:30:00,78.4,72.0,29.96,SE,128,8.0,9.0,80,0.00,,,0.00,weatherlink.com 1.10,2013-05-24 06:30:00,
2013-05-24 01:45:00,78.4,72.0,29.96,SE,138,3.0,12.0,80,0.00,,,0.00,weatherlink.com 1.10,2013-05-24 06:45:00,
2013-05-24 02:00:00,78.1,72.0,29.95,SSE,158,6.0,10.0,81,0.00,,,0.00,weatherlink.com 1.10,2013-05-24 07:00:00,
2013-05-24 02:15:00,77.8,72.0,29.95,SSE,154,13.0,19.0,82,0.00,,,0.00,weatherlink.com 1.10,2013-05-24 07:15:00,
2013-05-24 02:30:00,77.5,72.0,29.95,SSE,152,14.0,17.0,82,0.00,,,0.00,weatherlink.com 1.10,2013-05-24 07:30:00,
2013-05-24 02:45:00,77.2,71.0,29.94,South,175,10.0,16.0,82,0.00,,,0.00,weatherlink.com 1.10,2013-05-24 07:45:00,
2013-05-24 03:00:00,77.0,72.0,29.97,South,180,9.0,16.0,83,0.00,,,0.00,weatherlink.com 1.10,2013-05-24 08:00:00,
2013-05-24 03:15:00,76.6,71.0,29.98,South,190,11.0,15.0,83,0.00,,,0.00,weatherlink.com 1.10,2013-05-24 08:15:00,
2013-05-24 03:30:00,76.4,71.0,29.97,South,191,3.0,13.0,84,0.00,,,0.00,weatherlink.com 1.10,2013-05-24 08:30:00,
2013-05-24 03:45:00,76.2,71.0,29.96,South,181,7.0,9.0,85,0.00,,,0.00,weatherlink.com 1.10,2013-05-24 08:45:00,
2013-05-24 04:00:00,75.9,71.0,29.95,South,181,7.0,10.0,85,0.00,,,0.00,weatherlink.com 1.10,2013-05-24 09:00:00,
2013-05-24 04:15:00,75.6,71.0,29.94,South,190,9.0,11.0,85,0.00,,,0.00,weatherlink.com 1.10,2013-05-24 09:15:00,
2013-05-24 04:30:00,75.4,71.0,29.93,South,173,7.0,13.0,86,0.00,,,0.00,weatherlink.com 1.10,2013-05-24 09:30:00,
2013-05-24 04:45:00,75.3,71.0,29.94,SSE,163,9.0,13.0,87,0.00,,,0.00,weatherlink.com 1.10,2013-05-24 09:45:00,
2013-05-24 05:00:00,75.2,71.0,29.95,South,174,8.0,11.0,87,0.00,,,0.00,weatherlink.com 1.10,2013-05-24 10:00:00,
2013-05-24 05:15:00,75.1,71.0,29.93,SSE,168,8.0,12.0,87,0.00,,,0.00,weatherlink.com 1.10,2013-05-24 10:15:00,
2013-05-24 05:30:00,75.1,71.0,29.94,SSE,163,9.0,10.0,87,0.00,,,0.00,weatherlink.com 1.10,2013-05-24 10:30:00,
2013-05-24 05:45:00,75.1,71.0,29.95,South,184,8.0,11.0,87,0.00,,,0.00,weatherlink.com 1.10,2013-05-24 10:45:00,
2013-05-24 06:00:00,74.9,71.0,29.95,SSW,208,5.0,13.0,87,0.00,,,0.00,weatherlink.com 1.10,2013-05-24 11:00:00,
2013-05-24 06:15:00,75.0,71.0,29.96,SSW,192,9.0,11.0,87,0.00,,,0.00,weatherlink.com 1.10,2013-05-24 11:15:00,
2013-05-24 06:30:00,75.1,71.0,29.95,SSW,196,8.0,14.0,87,0.00,,,0.00,weatherlink.com 1.10,2013-05-24 11:30:00,
2013-05-24 06:45:00,74.9,71.0,29.95,SSW,192,16.0,16.0,87,0.00,,,0.00,weatherlink.com 1.10,2013-05-24 11:45:00,
2013-05-24 07:00:00,75.0,71.0,29.96,SSW,196,14.0,16.0,87,0.00,,,0.00,weatherlink.com 1.10,2013-05-24 12:00:00,
2013-05-24 07:15:00,74.9,71.0,29.96,SSW,200,8.0,14.0,86,0.00,,,0.00,weatherlink.com 1.10,2013-05-24 12:15:00,
2013-05-24 07:30:00,74.8,70.0,29.97,SSW,200,4.0,8.0,85,0.00,,,0.00,weatherlink.com 1.10,2013-05-24 12:30:00,
2013-05-24 07:45:00,74.2,67.0,29.98,SSW,200,4.0,7.0,79,0.00,,,0.00,weatherlink.com 1.10,2013-05-24 12:45:00,
2013-05-24 08:00:00,74.2,67.0,29.98,SSW,200,2.0,5.0,77,0.00,,,0.00,weatherlink.com 1.10,2013-05-24 13:00:00,
2013-05-24 08:15:00,74.4,67.0,30.00,SSW,200,5.0,8.0,78,0.00,,,0.00,weatherlink.com 1.10,2013-05-24 13:15:00,
2013-05-24 08:30:00,74.2,67.0,30.01,SSW,200,7.0,7.0,77,0.00,,,0.00,weatherlink.com 1.10,2013-05-24 13:30:00,
2013-05-24 08:45:00,74.1,66.0,30.01,SSW,200,5.0,9.0,77,0.00,,,0.00,weatherlink.com 1.10,2013-05-24 13:45:00,
2013-05-24 09:00:00,74.1,66.0,30.01,SE,143,9.0,14.0,77,0.00,,,0.00,weatherlink.com 1.10,2013-05-24 14:00:00,
2013-05-24 09:15:00,74.6,67.0,30.02,SE,140,7.0,13.0,77,0.00,,,0.00,weatherlink.com 1.10,2013-05-24 14:15:00,
2013-05-24 09:30:00,75.3,68.0,30.02,SE,144,9.0,13.0,77,0.00,,,0.00,weatherlink.com 1.10,2013-05-24 14:30:00,
2013-05-24 09:45:00,75.7,70.0,30.02,SE,135,8.0,14.0,82,0.00,,,0.00,weatherlink.com 1.10,2013-05-24 14:45:00,
2013-05-24 10:00:00,76.2,71.0,30.02,SSE,150,11.0,15.0,83,0.00,,,0.00,weatherlink.com 1.10,2013-05-24 15:00:00,
2013-05-24 10:16:00,76.7,71.0,30.03,SE,144,10.0,16.0,81,0.00,,,0.00,weatherlink.com 1.10,2013-05-24 15:16:00,
2013-05-24 10:31:00,77.1,70.0,30.02,SE,144,11.0,15.0,79,0.00,,,0.00,weatherlink.com 1.10,2013-05-24 15:31:00,
2013-05-24 10:46:00,77.3,70.0,30.03,SSE,155,13.0,17.0,79,0.00,,,0.00,weatherlink.com 1.10,2013-05-24 15:46:00,
2013-05-24 11:01:00,77.3,71.0,30.04,SSE,150,10.0,16.0,80,0.00,,,0.00,weatherlink.com 1.10,2013-05-24 16:01:00,
2013-05-24 11:16:00,77.6,71.0,30.04,SSE,156,9.0,14.0,79,0.00,,,0.00,weatherlink.com 1.10,2013-05-24 16:16:00,
2013-05-24 11:31:00,77.7,71.0,30.04,SSE,161,10.0,15.0,79,0.00,,,0.00,weatherlink.com 1.10,2013-05-24 16:31:00,
2013-05-24 11:46:00,77.7,71.0,30.05,SE,146,10.0,13.0,79,0.00,,,0.00,weatherlink.com 1.10,2013-05-24 16:46:00,
2013-05-24 12:01:00,78.0,71.0,30.05,SE,144,10.0,14.0,78,0.00,,,0.00,weatherlink.com 1.10,2013-05-24 17:01:00,
2013-05-24 12:16:00,78.1,71.0,30.04,SSE,152,6.0,13.0,78,0.00,,,0.00,weatherlink.com 1.10,2013-05-24 17:16:00,
2013-05-24 12:46:00,78.3,71.0,30.03,SE,142,10.0,13.0,78,0.00,,,0.00,weatherlink.com 1.10,2013-05-24 17:46:00,
2013-05-24 15:06:00,69.8,67.0,30.00,SE,139,8.0,17.0,91,0.37,,,0.65,weatherlink.com 1.10,2013-05-24 20:06:00,
2013-05-24 15:16:00,70.1,67.0,29.98,SE,134,5.0,13.0,91,0.22,,,0.65,weatherlink.com 1.10,2013-05-24 20:16:00,
2013-05-24 15:31:00,70.9,68.0,29.99,SE,134,2.0,5.0,89,0.06,,,0.65,weatherlink.com 1.10,2013-05-24 20:31:00,
2013-05-24 16:01:00,71.5,69.0,30.02,SE,126,9.0,13.0,90,0.01,,,0.66,weatherlink.com 1.10,2013-05-24 21:01:00,
2013-05-24 16:16:00,71.4,67.0,30.02,SE,134,11.0,15.0,87,0.01,,,0.66,weatherlink.com 1.10,2013-05-24 21:16:00,
2013-05-24 16:32:00,71.3,67.0,30.01,SE,137,8.0,16.0,87,0.01,,,0.66,weatherlink.com 1.10,2013-05-24 21:32:00,
2013-05-24 16:47:00,71.2,68.0,30.01,SE,127,10.0,15.0,88,0.00,,,0.66,weatherlink.com 1.10,2013-05-24 21:47:00,
2013-05-24 17:02:00,71.3,68.0,30.01,ESE,122,5.0,10.0,89,0.00,,,0.66,weatherlink.com 1.10,2013-05-24 22:02:00,
2013-05-24 17:17:00,71.6,68.0,30.01,SE,133,5.0,10.0,88,0.00,,,0.66,weatherlink.com 1.10,2013-05-24 22:17:00,
2013-05-24 17:32:00,71.8,68.0,30.00,East,96,7.0,10.0,87,0.00,,,0.66,weatherlink.com 1.10,2013-05-24 22:32:00,
2013-05-24 17:47:00,72.2,67.0,30.00,ENE,73,6.0,10.0,84,0.00,,,0.66,weatherlink.com 1.10,2013-05-24 22:47:00,
2013-05-24 18:02:00,72.2,67.0,29.99,ENE,60,5.0,8.0,83,0.00,,,0.66,weatherlink.com 1.10,2013-05-24 23:02:00,
2013-05-24 18:17:00,71.7,67.0,30.02,East,98,7.0,10.0,84,0.00,,,0.66,weatherlink.com 1.10,2013-05-24 23:17:00,
2013-05-24 18:32:00,70.9,67.0,30.02,East,92,7.0,13.0,86,0.00,,,0.66,weatherlink.com 1.10,2013-05-24 23:32:00,
2013-05-24 18:47:00,70.3,67.0,30.02,East,87,7.0,11.0,88,0.00,,,0.66,weatherlink.com 1.10,2013-05-24 23:47:00,
2013-05-24 19:02:00,70.0,67.0,30.02,East,89,5.0,11.0,89,0.00,,,0.66,weatherlink.com 1.10,2013-05-25 00:02:00,
2013-05-24 19:17:00,69.5,67.0,30.05,South,182,10.0,20.0,91,0.16,,,0.82,weatherlink.com 1.10,2013-05-25 00:17:00,
2013-05-24 19:32:00,69.3,67.0,30.03,SE,143,6.0,10.0,92,0.20,,,0.86,weatherlink.com 1.10,2013-05-25 00:32:00,
2013-05-24 19:47:00,69.3,67.0,30.03,East,90,7.0,9.0,92,0.21,,,0.87,weatherlink.com 1.10,2013-05-25 00:47:00,
2013-05-24 20:02:00,69.0,67.0,30.03,East,89,5.0,5.0,92,0.21,,,0.87,weatherlink.com 1.10,2013-05-25 01:02:00,
2013-05-24 20:17:00,68.5,66.0,30.04,East,89,6.0,8.0,92,0.06,,,0.88,weatherlink.com 1.10,2013-05-25 01:17:00,
2013-05-24 20:32:00,68.6,66.0,30.02,ENE,65,5.0,10.0,92,0.02,,,0.88,weatherlink.com 1.10,2013-05-25 01:32:00,
2013-05-24 20:47:00,68.8,66.0,30.02,ENE,60,3.0,8.0,92,0.01,,,0.88,weatherlink.com 1.10,2013-05-25 01:47:00,
2013-05-24 21:02:00,68.7,66.0,30.02,ENE,60,6.0,6.0,92,0.01,,,0.88,weatherlink.com 1.10,2013-05-25 02:02:00,
2013-05-24 21:17:00,69.3,67.0,30.02,ENE,74,9.0,10.0,91,0.00,,,0.88,weatherlink.com 1.10,2013-05-25 02:17:00,
2013-05-24 21:32:00,69.3,66.0,30.03,East,85,11.0,13.0,90,0.00,,,0.88,weatherlink.com 1.10,2013-05-25 02:32:00,
2013-05-24 21:47:00,69.5,67.0,30.04,ESE,102,15.0,18.0,90,0.00,,,0.88,weatherlink.com 1.10,2013-05-25 02:47:00,
2013-05-24 22:02:00,69.4,66.0,30.05,East,94,13.0,17.0,89,0.00,,,0.88,weatherlink.com 1.10,2013-05-25 03:02:00,
2013-05-24 22:17:00,69.4,66.0,30.05,East,91,9.0,17.0,90,0.00,,,0.88,weatherlink.com 1.10,2013-05-25 03:17:00,
2013-05-24 22:32:00,69.4,66.0,30.04,East,79,13.0,16.0,90,0.00,,,0.88,weatherlink.com 1.10,2013-05-25 03:32:00,
2013-05-24 22:47:00,69.2,66.0,30.04,East,79,8.0,10.0,90,0.00,,,0.88,weatherlink.com 1.10,2013-05-25 03:47:00,
2013-05-24 23:02:00,69.6,67.0,30.05,East,91,6.0,12.0,90,0.00,,,0.88,weatherlink.com 1.10,2013-05-25 04:02:00,
2013-05-24 23:17:00,69.9,67.0,30.05,ENE,78,7.0,11.0,89,0.00,,,0.88,weatherlink.com 1.10,2013-05-25 04:17:00,
2013-05-24 23:32:00,69.5,67.0,30.05,East,87,8.0,12.0,90,0.00,,,0.88,weatherlink.com 1.10,2013-05-25 04:32:00,
2013-05-24 23:47:00,69.7,66.0,30.06,East,100,10.0,14.0,89,0.00,,,0.88,weatherlink.com 1.10,2013-05-25 04:47:00,